Otagawa — JD3046 — position and weather

sailwx.info

Track history (hours):
 
Tides and Currents Weather Stations Pressure Air Temp Water Temp Dewpoint Dewpoint Depression Visibility Wind Speed Wind Dir Waves Ship Positions

Otagawa

Last reported at 2014-Sep-18 23:27 UTC. Time now 2014-Sep-21 08:09 UTC.
Position N 35°04' E 140°18'.

Length 70 m; draft 4.6 m.

Type: Ship. MMSI: 431001328.

Date/timePositionNaut miles runAvg speedWind from/ knotsBaromVisibWave heightAir tempDewpointWater temp
2014-Sep-18 23:27N 35°04' E 140°18'1011.8
2014-Sep-18 22:33N 34°58' E 140°07'20 8.2
2014-Sep-18 20:09N 35°00' E 139°43'610.7
2014-Sep-18 19:33N 35°06' E 139°45'1111.1
2014-Sep-18 18:33N 35°17' E 139°44'10 9.7
2014-Sep-18 17:33N 35°27' E 139°47'8 8.4
2014-Sep-18 16:33N 35°35' E 139°47'1 1.0
2014-Sep-18 15:33N 35°36' E 139°46'0 0.0
2014-Sep-18 14:33N 35°36' E 139°46'3 3.5
2014-Sep-18 13:33N 35°34' E 139°49'8 7.6
2014-Sep-18 12:33N 35°27' E 139°45'3 3.4
2014-Sep-18 11:33N 35°26' E 139°41'0 0.0
2014-Sep-18 10:33N 35°26' E 139°41'1 0.5
2014-Sep-18 09:33N 35°27' E 139°41'4 4.3
2014-Sep-18 08:33N 35°29' E 139°45'0 0.0
2014-Sep-18 07:33N 35°29' E 139°45'0 0.0
2014-Sep-18 06:33N 35°29' E 139°45'0 0.0
2014-Sep-18 05:33N 35°29' E 139°45'0 0.0
2014-Sep-18 04:33N 35°29' E 139°45'5 5.0
2014-Sep-18 03:33N 35°24' E 139°46'10 9.7
2014-Sep-18 02:33N 35°15' E 139°47'1010.1
2014-Sep-18 01:33N 35°05' E 139°44'60 1.9
2014-Sep-16 18:07N 35°02' E 138°30'47 1.9
2014-Sep-15 17:17N 34°60' E 139°28'810.9
2014-Sep-15 16:32N 35°04' E 139°36'1010.6
2014-Sep-15 15:33N 35°12' E 139°45'1110.9
2014-Sep-15 14:33N 35°22' E 139°42'1110.5
2014-Sep-15 13:33N 35°30' E 139°51'8 7.9
2014-Sep-15 12:33N 35°37' E 139°46'0 0.0
2014-Sep-15 11:34N 35°37' E 139°46'0 0.0
2014-Sep-15 10:34N 35°37' E 139°46'0 0.0
2014-Sep-15 09:33N 35°37' E 139°46'3 2.6
2014-Sep-15 08:33N 35°35' E 139°48'9 8.5
2014-Sep-15 07:33N 35°26' E 139°49'1010.0
2014-Sep-15 06:33N 35°17' E 139°46'1010.3
2014-Sep-15 05:33N 35°06' E 139°46'1010.1
2014-Sep-15 04:33N 34°56' E 139°45'10 9.8
2014-Sep-15 03:30N 34°52' E 139°56'9 9.5
2014-Sep-15 02:33N 34°57' E 140°06'9 9.5
2014-Sep-15 01:34N 35°02' E 140°15'11 9.2
2014-Sep-15 00:19N 35°10' E 140°26'1210.7
2014-Sep-14 23:11N 35°20' E 140°35'711.0
2014-Sep-14 22:33N 35°25' E 140°40'1111.1
2014-Sep-14 21:33N 35°34' E 140°48'1211.9
2014-Sep-14 20:33N 35°44' E 140°57'1211.6
2014-Sep-14 19:34N 35°55' E 140°58'1212.1
2014-Sep-14 18:33N 36°07' E 140°59'1211.9
2014-Sep-14 17:34N 36°19' E 141°00'1211.6
2014-Sep-14 16:33N 36°30' E 141°02'1212.0
2014-Sep-14 15:33N 36°42' E 141°03'47 0.9
2014-Sep-12 12:33N 35°56' E 140°57'3210.4
2014-Sep-12 09:28N 35°27' E 140°42'1110.9
2014-Sep-12 08:30N 35°18' E 140°34'2311.1
2014-Sep-12 06:28N 35°03' E 140°14'1011.1
2014-Sep-12 05:33N 34°57' E 140°04'16 7.9
2014-Sep-12 03:34N 34°56' E 139°44'1111.0
2014-Sep-12 02:33N 35°07' E 139°45'1111.2
2014-Sep-12 01:33N 35°18' E 139°44'8 8.0
2014-Sep-12 00:33N 35°26' E 139°41'0 0.0
2014-Sep-11 23:33N 35°26' E 139°41'5 4.7
2014-Sep-11 22:33N 35°27' E 139°46'4 4.4
2014-Sep-11 21:33N 35°30' E 139°50'0 0.0
2014-Sep-11 20:34N 35°30' E 139°50'0 0.0
2014-Sep-11 19:33N 35°30' E 139°50'0 0.0
2014-Sep-11 18:33N 35°30' E 139°50'0 0.0
2014-Sep-11 17:33N 35°30' E 139°50'0 0.0
2014-Sep-11 16:33N 35°30' E 139°50'0 0.0
2014-Sep-11 15:33N 35°30' E 139°50'0 0.2
2014-Sep-11 14:33N 35°31' E 139°50'7 7.1
2014-Sep-11 13:33N 35°37' E 139°46'1 0.6
2014-Sep-11 12:33N 35°36' E 139°46'7 7.0
2014-Sep-11 11:34N 35°30' E 139°50'8 8.4
2014-Sep-11 10:33N 35°26' E 139°41'0 0.4
2014-Sep-11 09:33N 35°27' E 139°41'4 4.3
2014-Sep-11 08:33N 35°29' E 139°45'0 0.0
2014-Sep-11 07:33N 35°29' E 139°45'0 0.0
2014-Sep-11 06:33N 35°29' E 139°45'0 0.0
2014-Sep-11 05:33N 35°29' E 139°45'1 1.5
2014-Sep-11 04:33N 35°28' E 139°45'1110.8
2014-Sep-11 03:33N 35°17' E 139°46'1010.4
2014-Sep-11 02:33N 35°07' E 139°45'61 1.8
2014-Sep-09 16:28N 35°02' E 138°31'  
Track history (hours):
 
Tides and Currents Weather Stations Pressure Air Temp Water Temp Dewpoint Dewpoint Depression Visibility Wind Speed Wind Dir Waves Ship Positions

Otagawa

Last reported at 2014-Sep-18 23:27 UTC. Time now 2014-Sep-21 08:09 UTC.
Position N 35°04' E 140°18'.

Length 70 m; draft 4.6 m.

Type: Ship. MMSI: 431001328.

Date/timePositionNaut miles runAvg speedWind from/ knotsBaromVisibWave heightAir tempDewpointWater temp
2014-Sep-18 23:27N 35°04' E 140°18'1011.8
2014-Sep-18 22:33N 34°58' E 140°07'20 8.2
2014-Sep-18 20:09N 35°00' E 139°43'610.7
2014-Sep-18 19:33N 35°06' E 139°45'1111.1
2014-Sep-18 18:33N 35°17' E 139°44'10 9.7
2014-Sep-18 17:33N 35°27' E 139°47'8 8.4
2014-Sep-18 16:33N 35°35' E 139°47'1 1.0
2014-Sep-18 15:33N 35°36' E 139°46'0 0.0
2014-Sep-18 14:33N 35°36' E 139°46'3 3.5
2014-Sep-18 13:33N 35°34' E 139°49'8 7.6
2014-Sep-18 12:33N 35°27' E 139°45'3 3.4
2014-Sep-18 11:33N 35°26' E 139°41'0 0.0
2014-Sep-18 10:33N 35°26' E 139°41'1 0.5
2014-Sep-18 09:33N 35°27' E 139°41'4 4.3
2014-Sep-18 08:33N 35°29' E 139°45'0 0.0
2014-Sep-18 07:33N 35°29' E 139°45'0 0.0
2014-Sep-18 06:33N 35°29' E 139°45'0 0.0
2014-Sep-18 05:33N 35°29' E 139°45'0 0.0
2014-Sep-18 04:33N 35°29' E 139°45'5 5.0
2014-Sep-18 03:33N 35°24' E 139°46'10 9.7
2014-Sep-18 02:33N 35°15' E 139°47'1010.1
2014-Sep-18 01:33N 35°05' E 139°44'60 1.9
2014-Sep-16 18:07N 35°02' E 138°30'47 1.9
2014-Sep-15 17:17N 34°60' E 139°28'810.9
2014-Sep-15 16:32N 35°04' E 139°36'1010.6
2014-Sep-15 15:33N 35°12' E 139°45'1110.9
2014-Sep-15 14:33N 35°22' E 139°42'1110.5
2014-Sep-15 13:33N 35°30' E 139°51'8 7.9
2014-Sep-15 12:33N 35°37' E 139°46'0 0.0
2014-Sep-15 11:34N 35°37' E 139°46'0 0.0
2014-Sep-15 10:34N 35°37' E 139°46'0 0.0
2014-Sep-15 09:33N 35°37' E 139°46'3 2.6
2014-Sep-15 08:33N 35°35' E 139°48'9 8.5
2014-Sep-15 07:33N 35°26' E 139°49'1010.0
2014-Sep-15 06:33N 35°17' E 139°46'1010.3
2014-Sep-15 05:33N 35°06' E 139°46'1010.1
2014-Sep-15 04:33N 34°56' E 139°45'10 9.8
2014-Sep-15 03:30N 34°52' E 139°56'9 9.5
2014-Sep-15 02:33N 34°57' E 140°06'9 9.5
2014-Sep-15 01:34N 35°02' E 140°15'11 9.2
2014-Sep-15 00:19N 35°10' E 140°26'1210.7
2014-Sep-14 23:11N 35°20' E 140°35'711.0
2014-Sep-14 22:33N 35°25' E 140°40'1111.1
2014-Sep-14 21:33N 35°34' E 140°48'1211.9
2014-Sep-14 20:33N 35°44' E 140°57'1211.6
2014-Sep-14 19:34N 35°55' E 140°58'1212.1
2014-Sep-14 18:33N 36°07' E 140°59'1211.9
2014-Sep-14 17:34N 36°19' E 141°00'1211.6
2014-Sep-14 16:33N 36°30' E 141°02'1212.0
2014-Sep-14 15:33N 36°42' E 141°03'47 0.9
2014-Sep-12 12:33N 35°56' E 140°57'3210.4
2014-Sep-12 09:28N 35°27' E 140°42'1110.9
2014-Sep-12 08:30N 35°18' E 140°34'2311.1
2014-Sep-12 06:28N 35°03' E 140°14'1011.1
2014-Sep-12 05:33N 34°57' E 140°04'16 7.9
2014-Sep-12 03:34N 34°56' E 139°44'1111.0
2014-Sep-12 02:33N 35°07' E 139°45'1111.2
2014-Sep-12 01:33N 35°18' E 139°44'8 8.0
2014-Sep-12 00:33N 35°26' E 139°41'0 0.0
2014-Sep-11 23:33N 35°26' E 139°41'5 4.7
2014-Sep-11 22:33N 35°27' E 139°46'4 4.4
2014-Sep-11 21:33N 35°30' E 139°50'0 0.0
2014-Sep-11 20:34N 35°30' E 139°50'0 0.0
2014-Sep-11 19:33N 35°30' E 139°50'0 0.0
2014-Sep-11 18:33N 35°30' E 139°50'0 0.0
2014-Sep-11 17:33N 35°30' E 139°50'0 0.0
2014-Sep-11 16:33N 35°30' E 139°50'0 0.0
2014-Sep-11 15:33N 35°30' E 139°50'0 0.2
2014-Sep-11 14:33N 35°31' E 139°50'7 7.1
2014-Sep-11 13:33N 35°37' E 139°46'1 0.6
2014-Sep-11 12:33N 35°36' E 139°46'7 7.0
2014-Sep-11 11:34N 35°30' E 139°50'8 8.4
2014-Sep-11 10:33N 35°26' E 139°41'0 0.4
2014-Sep-11 09:33N 35°27' E 139°41'4 4.3
2014-Sep-11 08:33N 35°29' E 139°45'0 0.0
2014-Sep-11 07:33N 35°29' E 139°45'0 0.0
2014-Sep-11 06:33N 35°29' E 139°45'0 0.0
2014-Sep-11 05:33N 35°29' E 139°45'1 1.5
2014-Sep-11 04:33N 35°28' E 139°45'1110.8
2014-Sep-11 03:33N 35°17' E 139°46'1010.4
2014-Sep-11 02:33N 35°07' E 139°45'61 1.8
2014-Sep-09 16:28N 35°02' E 138°31'  

Dump ship's entire track history